Time,TemperatureF,DewpointF,PressureIn,WindDirection,WindDirectionDegrees,WindSpeedMPH,WindSpeedGustMPH,Humidity,HourlyPrecipIn,Conditions,Clouds,dailyrainin,SoftwareType,DateUTC
2013-08-07 00:01:00,68.2,18.8,0.00,North,353,0.0,0.0,15,0.00,,---,0.00,VWS V14.01,2013-08-07 07:01:00,
2013-08-07 00:06:00,68.2,18.8,0.00,NNW,344,0.0,0.0,15,0.00,,---,0.00,VWS V14.01,2013-08-07 07:06:00,
2013-08-07 00:11:00,68.4,19.0,0.00,North,0,0.0,0.0,15,0.00,,---,0.00,VWS V14.01,2013-08-07 07:11:00,
2013-08-07 00:16:00,68.7,19.2,0.00,NNW,345,0.0,0.0,15,0.00,,---,0.00,VWS V14.01,2013-08-07 07:16:00,
2013-08-07 00:21:00,68.7,19.2,0.00,NNW,345,0.0,0.0,15,0.00,,---,0.00,VWS V14.01,2013-08-07 07:21:00,
2013-08-07 00:26:00,68.5,19.1,0.00,NNW,345,0.0,0.0,15,0.00,,---,0.00,VWS V14.01,2013-08-07 07:26:00,
2013-08-07 00:31:00,68.0,18.7,0.00,NNW,345,0.0,0.0,15,0.00,,---,0.00,VWS V14.01,2013-08-07 07:31:00,
2013-08-07 00:36:00,67.6,18.4,0.00,NNW,345,0.0,0.0,15,0.00,,---,0.00,VWS V14.01,2013-08-07 07:36:00,
2013-08-07 00:41:00,67.3,18.1,0.00,NNE,31,0.0,0.0,15,0.00,,---,0.00,VWS V14.01,2013-08-07 07:41:00,
2013-08-07 00:46:00,66.9,17.8,0.00,NNE,31,0.0,0.0,15,0.00,,---,0.00,VWS V14.01,2013-08-07 07:46:00,
2013-08-07 00:51:00,66.7,17.6,0.00,NNE,31,0.0,0.0,15,0.00,,---,0.00,VWS V14.01,2013-08-07 07:51:00,
2013-08-07 00:56:00,66.7,17.6,0.00,NNE,31,0.0,0.0,15,0.00,,---,0.00,VWS V14.01,2013-08-07 07:56:00,
2013-08-07 01:01:00,66.7,17.6,0.00,NNE,31,0.0,0.0,15,0.00,,---,0.00,VWS V14.01,2013-08-07 08:01:00,
2013-08-07 01:06:00,66.7,17.6,0.00,NNE,31,0.0,0.0,15,0.00,,---,0.00,VWS V14.01,2013-08-07 08:06:00,
2013-08-07 01:11:00,66.6,17.5,0.00,NNE,31,0.0,0.0,15,0.00,,---,0.00,VWS V14.01,2013-08-07 08:11:00,
2013-08-07 01:16:00,66.2,17.2,0.00,NNE,31,0.0,0.0,15,0.00,,---,0.00,VWS V14.01,2013-08-07 08:16:00,
2013-08-07 01:21:00,66.2,17.2,0.00,NNE,31,0.0,0.0,15,0.00,,---,0.00,VWS V14.01,2013-08-07 08:21:00,
2013-08-07 01:26:00,66.0,17.1,0.00,NNE,31,0.0,0.0,15,0.00,,---,0.00,VWS V14.01,2013-08-07 08:26:00,
2013-08-07 01:31:00,65.8,16.9,0.00,NNW,343,0.0,0.0,15,0.00,,---,0.00,VWS V14.01,2013-08-07 08:31:00,
2013-08-07 01:36:00,66.0,17.1,0.00,North,349,3.6,5.8,15,0.00,,---,0.00,VWS V14.01,2013-08-07 08:36:00,
2013-08-07 01:41:00,66.0,21.3,0.00,NNW,345,2.7,4.9,18,0.00,,---,0.00,VWS V14.01,2013-08-07 08:41:00,
2013-08-07 01:46:00,65.7,26.9,0.00,North,6,0.0,0.0,23,0.00,,---,0.00,VWS V14.01,2013-08-07 08:46:00,
2013-08-07 01:51:00,65.3,26.6,0.00,North,6,0.0,0.0,23,0.00,,---,0.00,VWS V14.01,2013-08-07 08:51:00,
2013-08-07 01:56:00,65.1,27.5,0.00,North,357,3.6,3.6,24,0.00,,---,0.00,VWS V14.01,2013-08-07 08:56:00,
2013-08-07 02:01:00,65.1,27.5,0.00,North,0,0.0,0.0,24,0.00,,---,0.00,VWS V14.01,2013-08-07 09:01:00,
2013-08-07 02:06:00,65.1,26.4,0.00,North,0,0.0,0.0,23,0.00,,---,0.00,VWS V14.01,2013-08-07 09:06:00,
2013-08-07 02:11:00,65.3,26.6,0.00,NNW,344,0.0,0.0,23,0.00,,---,0.00,VWS V14.01,2013-08-07 09:11:00,
2013-08-07 02:16:00,65.3,26.6,0.00,NNW,344,0.0,0.0,23,0.00,,---,0.00,VWS V14.01,2013-08-07 09:16:00,
2013-08-07 02:21:00,64.9,26.3,0.00,NNW,340,0.0,0.0,23,0.00,,---,0.00,VWS V14.01,2013-08-07 09:21:00,
2013-08-07 02:26:00,64.6,26.0,0.00,North,353,5.4,5.4,23,0.00,,---,0.00,VWS V14.01,2013-08-07 09:26:00,
2013-08-07 02:31:00,64.4,27.8,0.00,NNW,345,5.8,6.3,25,0.00,,---,0.00,VWS V14.01,2013-08-07 09:31:00,
2013-08-07 02:36:00,64.0,28.5,0.00,North,0,3.1,5.8,26,0.00,,---,0.00,VWS V14.01,2013-08-07 09:36:00,
2013-08-07 02:41:00,63.7,29.1,0.00,North,353,5.8,6.3,27,0.00,,---,0.00,VWS V14.01,2013-08-07 09:41:00,
2013-08-07 02:46:00,63.5,29.8,0.00,NNW,334,2.7,4.0,28,0.00,,---,0.00,VWS V14.01,2013-08-07 09:46:00,
2013-08-07 02:51:00,63.5,31.5,0.00,North,353,0.0,6.3,30,0.00,,---,0.00,VWS V14.01,2013-08-07 09:51:00,
2013-08-07 02:56:00,63.9,31.0,0.00,NNW,343,5.8,8.3,29,0.00,,---,0.00,VWS V14.01,2013-08-07 09:56:00,
2013-08-07 03:01:00,64.2,30.5,0.00,North,2,0.0,0.0,28,0.00,,---,0.00,VWS V14.01,2013-08-07 10:01:00,
2013-08-07 03:06:00,64.2,29.6,0.00,North,11,0.0,0.0,27,0.00,,---,0.00,VWS V14.01,2013-08-07 10:06:00,
2013-08-07 03:11:00,63.9,28.3,0.00,NE,39,0.0,0.0,26,0.00,,---,0.00,VWS V14.01,2013-08-07 10:11:00,
2013-08-07 03:16:00,63.5,28.0,0.00,NE,39,0.0,0.0,26,0.00,,---,0.00,VWS V14.01,2013-08-07 10:16:00,
2013-08-07 03:44:00,62.1,26.8,0.00,NE,39,0.0,0.0,26,0.00,,---,0.00,VWS V14.01,2013-08-07 10:44:00,
2013-08-07 03:49:00,61.9,26.6,0.00,NE,39,0.0,0.0,26,0.00,,---,0.00,VWS V14.01,2013-08-07 10:49:00,
2013-08-07 03:54:00,61.5,26.3,0.00,North,357,0.0,0.0,26,0.00,,---,0.00,VWS V14.01,2013-08-07 10:54:00,
2013-08-07 03:59:00,61.2,26.9,0.00,NNE,14,0.0,0.0,27,0.00,,---,0.00,VWS V14.01,2013-08-07 10:59:00,
2013-08-07 04:04:00,61.0,29.4,0.00,NE,38,0.0,0.0,30,0.00,,---,0.00,VWS V14.01,2013-08-07 11:04:00,
2013-08-07 04:09:00,61.0,31.7,0.00,NNE,23,0.0,0.0,33,0.00,,---,0.00,VWS V14.01,2013-08-07 11:09:00,
2013-08-07 04:14:00,61.0,31.7,0.00,NNE,18,0.0,0.0,33,0.00,,---,0.00,VWS V14.01,2013-08-07 11:14:00,
2013-08-07 04:19:00,61.0,30.9,0.00,NNE,18,0.0,0.0,32,0.00,,---,0.00,VWS V14.01,2013-08-07 11:19:00,
2013-08-07 04:24:00,61.0,30.9,0.00,NNE,18,0.0,0.0,32,0.00,,---,0.00,VWS V14.01,2013-08-07 11:24:00,
2013-08-07 04:29:00,61.3,30.5,0.00,NNE,22,0.0,0.0,31,0.00,,---,0.00,VWS V14.01,2013-08-07 11:29:00,
2013-08-07 04:34:00,61.3,29.7,0.00,NNE,21,0.0,0.0,30,0.00,,---,0.00,VWS V14.01,2013-08-07 11:34:00,
2013-08-07 04:39:00,61.3,28.8,0.00,NNE,21,0.0,0.0,29,0.00,,---,0.00,VWS V14.01,2013-08-07 11:39:00,
2013-08-07 04:44:00,60.6,29.0,0.00,WSW,255,0.0,0.0,30,0.00,,---,0.00,VWS V14.01,2013-08-07 11:44:00,
2013-08-07 04:49:00,60.3,29.5,0.00,WSW,255,0.0,0.0,31,0.00,,---,0.00,VWS V14.01,2013-08-07 11:49:00,
2013-08-07 04:54:00,60.1,29.4,0.00,WSW,255,0.0,0.0,31,0.00,,---,0.00,VWS V14.01,2013-08-07 11:54:00,
2013-08-07 04:59:00,60.3,30.3,0.00,NW,326,0.0,0.0,32,0.00,,---,0.00,VWS V14.01,2013-08-07 11:59:00,
2013-08-07 05:04:00,60.1,30.9,0.00,NW,326,0.0,0.0,33,0.00,,---,0.00,VWS V14.01,2013-08-07 12:04:00,
2013-08-07 05:09:00,60.3,31.8,0.00,NE,38,0.0,0.0,34,0.00,,---,0.00,VWS V14.01,2013-08-07 12:09:00,
2013-08-07 05:14:00,60.4,31.2,0.00,ENE,74,0.0,0.0,33,0.00,,---,0.00,VWS V14.01,2013-08-07 12:14:00,
2013-08-07 05:19:00,60.4,30.5,0.00,ENE,74,0.0,0.0,32,0.00,,---,0.00,VWS V14.01,2013-08-07 12:19:00,
2013-08-07 05:24:00,60.3,30.3,0.00,ENE,74,0.0,0.0,32,0.00,,---,0.00,VWS V14.01,2013-08-07 12:24:00,
2013-08-07 05:29:00,60.4,30.5,0.00,NE,52,0.0,0.0,32,0.00,,---,0.00,VWS V14.01,2013-08-07 12:29:00,
2013-08-07 05:34:00,60.6,29.8,0.00,ENE,59,0.0,0.0,31,0.00,,---,0.00,VWS V14.01,2013-08-07 12:34:00,
2013-08-07 05:39:00,61.0,29.4,0.00,NE,38,3.1,3.1,30,0.00,,---,0.00,VWS V14.01,2013-08-07 12:39:00,
2013-08-07 05:44:00,61.3,28.0,0.00,NE,45,0.0,0.0,28,0.00,,---,0.00,VWS V14.01,2013-08-07 12:44:00,
2013-08-07 05:49:00,61.5,28.1,0.00,NE,45,0.0,0.0,28,0.00,,---,0.00,VWS V14.01,2013-08-07 12:49:00,
2013-08-07 05:54:00,61.5,27.2,0.00,NE,43,0.0,0.0,27,0.00,,---,0.00,VWS V14.01,2013-08-07 12:54:00,
2013-08-07 05:59:00,61.9,26.6,0.00,NE,43,0.0,0.0,26,0.00,,---,0.00,VWS V14.01,2013-08-07 12:59:00,
2013-08-07 06:04:00,62.2,26.0,0.00,NE,43,0.0,0.0,25,0.00,,---,0.00,VWS V14.01,2013-08-07 13:04:00,
2013-08-07 06:09:00,62.4,26.2,0.00,NE,43,0.0,0.0,25,0.00,,---,0.00,VWS V14.01,2013-08-07 13:09:00,
2013-08-07 06:14:00,62.8,25.5,0.00,NNE,23,0.0,0.0,24,0.00,,---,0.00,VWS V14.01,2013-08-07 13:14:00,
2013-08-07 06:19:00,63.3,25.9,0.00,NE,37,0.0,0.0,24,0.00,,---,0.00,VWS V14.01,2013-08-07 13:19:00,
2013-08-07 06:24:00,63.9,25.4,0.00,NE,34,0.0,0.0,23,0.00,,---,0.00,VWS V14.01,2013-08-07 13:24:00,
2013-08-07 06:29:00,64.2,23.5,0.00,North,10,0.0,0.0,21,0.00,,---,0.00,VWS V14.01,2013-08-07 13:29:00,
2013-08-07 06:34:00,64.6,22.6,0.00,North,353,0.0,0.0,20,0.00,,---,0.00,VWS V14.01,2013-08-07 13:34:00,
2013-08-07 06:39:00,64.8,26.1,0.00,North,0,0.0,0.0,23,0.00,,---,0.00,VWS V14.01,2013-08-07 13:39:00,
2013-08-07 06:44:00,64.6,26.0,0.00,NNE,29,0.0,0.0,23,0.00,,---,0.00,VWS V14.01,2013-08-07 13:44:00,
2013-08-07 06:49:00,64.6,26.0,0.00,NNW,345,2.7,3.6,23,0.00,,---,0.00,VWS V14.01,2013-08-07 13:49:00,
2013-08-07 06:54:00,64.0,26.5,0.00,North,353,0.0,0.0,24,0.00,,---,0.00,VWS V14.01,2013-08-07 13:54:00,
2013-08-07 06:59:00,63.9,26.4,0.00,NNW,340,0.0,0.0,24,0.00,,---,0.00,VWS V14.01,2013-08-07 13:59:00,
2013-08-07 07:04:00,64.0,26.5,0.00,North,353,0.0,0.0,24,0.00,,---,0.00,VWS V14.01,2013-08-07 14:04:00,
2013-08-07 07:09:00,64.4,25.8,0.00,North,350,0.0,0.0,23,0.00,,---,0.00,VWS V14.01,2013-08-07 14:09:00,
2013-08-07 07:14:00,64.8,26.1,0.00,NNW,341,0.0,0.0,23,0.00,,---,0.00,VWS V14.01,2013-08-07 14:14:00,
2013-08-07 07:19:00,65.5,26.7,0.00,NNW,345,0.0,0.0,23,0.00,,---,0.00,VWS V14.01,2013-08-07 14:19:00,
2013-08-07 07:24:00,66.0,27.2,0.00,North,0,0.0,0.0,23,0.00,,---,0.00,VWS V14.01,2013-08-07 14:24:00,
2013-08-07 07:29:00,66.4,26.4,0.00,North,353,0.0,0.0,22,0.00,,---,0.00,VWS V14.01,2013-08-07 14:29:00,
2013-08-07 07:34:00,66.0,27.2,0.00,North,353,3.6,3.6,23,0.00,,---,0.00,VWS V14.01,2013-08-07 14:34:00,
2013-08-07 07:39:00,66.2,26.3,0.00,North,0,0.0,0.0,22,0.00,,---,0.00,VWS V14.01,2013-08-07 14:39:00,
2013-08-07 07:44:00,66.4,26.4,0.00,NE,44,0.0,0.0,22,0.00,,---,0.00,VWS V14.01,2013-08-07 14:44:00,
2013-08-07 07:49:00,66.9,26.9,0.00,NE,38,0.0,0.0,22,0.00,,---,0.00,VWS V14.01,2013-08-07 14:49:00,
2013-08-07 07:54:00,67.5,25.0,0.00,NNE,30,0.0,0.0,20,0.00,,---,0.00,VWS V14.01,2013-08-07 14:54:00,
2013-08-07 07:59:00,68.0,25.5,0.00,NNE,15,0.0,0.0,20,0.00,,---,0.00,VWS V14.01,2013-08-07 14:59:00,
2013-08-07 08:04:00,68.2,25.6,0.00,North,2,0.0,0.0,20,0.00,,---,0.00,VWS V14.01,2013-08-07 15:04:00,
2013-08-07 08:09:00,68.7,22.2,0.00,North,11,0.0,0.0,17,0.00,,---,0.00,VWS V14.01,2013-08-07 15:09:00,
2013-08-07 08:14:00,69.1,22.5,0.00,NNE,23,0.0,0.0,17,0.00,,---,0.00,VWS V14.01,2013-08-07 15:14:00,
2013-08-07 08:19:00,69.1,22.5,0.00,NNE,17,0.0,0.0,17,0.00,,---,0.00,VWS V14.01,2013-08-07 15:19:00,
2013-08-07 08:24:00,69.6,22.9,0.00,North,8,0.0,0.0,17,0.00,,---,0.00,VWS V14.01,2013-08-07 15:24:00,
2013-08-07 08:29:00,70.2,23.4,0.00,North,10,0.0,0.0,17,0.00,,---,0.00,VWS V14.01,2013-08-07 15:29:00,
2013-08-07 08:34:00,70.9,19.4,0.00,NE,48,0.0,0.0,14,0.00,,---,0.00,VWS V14.01,2013-08-07 15:34:00,
2013-08-07 08:39:00,71.6,19.9,0.00,ENE,58,0.0,0.0,14,0.00,,---,0.00,VWS V14.01,2013-08-07 15:39:00,
2013-08-07 08:44:00,72.5,20.6,0.00,NNE,31,0.0,0.0,14,0.00,,---,0.00,VWS V14.01,2013-08-07 15:44:00,
2013-08-07 08:49:00,73.6,19.8,0.00,North,353,0.0,0.0,13,0.00,,---,0.00,VWS V14.01,2013-08-07 15:49:00,
2013-08-07 08:54:00,74.1,20.2,0.00,SSE,149,0.0,0.0,13,0.00,,---,0.00,VWS V14.01,2013-08-07 15:54:00,
2013-08-07 08:59:00,74.3,20.3,0.00,SSE,153,0.0,0.0,13,0.00,,---,0.00,VWS V14.01,2013-08-07 15:59:00,
2013-08-07 09:04:00,74.5,20.5,0.00,SSE,153,0.0,0.0,13,0.00,,---,0.00,VWS V14.01,2013-08-07 16:04:00,
2013-08-07 09:09:00,75.2,21.0,0.00,SSE,153,0.0,0.0,13,0.00,,---,0.00,VWS V14.01,2013-08-07 16:09:00,
2013-08-07 09:14:00,76.1,21.7,0.00,ENE,59,0.0,0.0,13,0.00,,---,0.00,VWS V14.01,2013-08-07 16:14:00,
2013-08-07 09:19:00,76.5,22.0,0.00,South,182,0.0,0.0,13,0.00,,---,0.00,VWS V14.01,2013-08-07 16:19:00,
2013-08-07 09:24:00,76.8,22.3,0.00,SSW,193,0.0,0.0,13,0.00,,---,0.00,VWS V14.01,2013-08-07 16:24:00,
2013-08-07 09:29:00,76.8,22.3,0.00,SSE,147,0.0,0.0,13,0.00,,---,0.00,VWS V14.01,2013-08-07 16:29:00,
2013-08-07 09:34:00,76.8,22.3,0.00,South,177,0.0,0.0,13,0.00,,---,0.00,VWS V14.01,2013-08-07 16:34:00,
2013-08-07 09:39:00,76.6,22.1,0.00,SSE,160,0.0,4.9,13,0.00,,---,0.00,VWS V14.01,2013-08-07 16:39:00,
2013-08-07 09:44:00,76.1,21.7,0.00,SSW,206,0.0,0.0,13,0.00,,---,0.00,VWS V14.01,2013-08-07 16:44:00,
2013-08-07 09:49:00,76.1,21.7,0.00,SSE,151,0.0,0.0,13,0.00,,---,0.00,VWS V14.01,2013-08-07 16:49:00,
2013-08-07 09:54:00,76.5,22.0,0.00,SSE,166,0.0,0.0,13,0.00,,---,0.00,VWS V14.01,2013-08-07 16:54:00,
2013-08-07 09:59:00,76.5,22.0,0.00,South,186,0.0,0.0,13,0.00,,---,0.00,VWS V14.01,2013-08-07 16:59:00,
2013-08-07 10:04:00,76.8,22.3,0.00,SSE,155,0.0,0.0,13,0.00,,---,0.00,VWS V14.01,2013-08-07 17:04:00,
2013-08-07 10:09:00,77.4,22.7,0.00,SW,219,0.0,0.0,13,0.00,,---,0.00,VWS V14.01,2013-08-07 17:09:00,
2013-08-07 10:14:00,77.4,22.7,0.00,SSW,196,0.0,0.0,13,0.00,,---,0.00,VWS V14.01,2013-08-07 17:14:00,
2013-08-07 10:19:00,77.7,23.0,0.00,SSE,152,0.0,0.0,13,0.00,,---,0.00,VWS V14.01,2013-08-07 17:19:00,
2013-08-07 10:24:00,77.9,23.1,0.00,South,184,0.0,0.0,13,0.00,,---,0.00,VWS V14.01,2013-08-07 17:24:00,
2013-08-07 10:29:00,78.3,23.4,0.00,South,174,0.0,0.0,13,0.00,,---,0.00,VWS V14.01,2013-08-07 17:29:00,
2013-08-07 10:34:00,78.8,22.0,0.00,SSW,202,0.0,0.0,12,0.00,,---,0.00,VWS V14.01,2013-08-07 17:34:00,
2013-08-07 10:39:00,79.2,22.2,0.00,SSE,165,0.0,0.0,12,0.00,,---,0.00,VWS V14.01,2013-08-07 17:39:00,
2013-08-07 10:44:00,79.2,22.2,0.00,SW,214,0.0,0.0,12,0.00,,---,0.00,VWS V14.01,2013-08-07 17:44:00,
2013-08-07 10:49:00,79.5,22.5,0.00,SSE,155,0.0,0.0,12,0.00,,---,0.00,VWS V14.01,2013-08-07 17:49:00,
2013-08-07 10:54:00,80.1,22.9,0.00,South,189,0.0,0.0,12,0.00,,---,0.00,VWS V14.01,2013-08-07 17:54:00,
2013-08-07 10:59:00,80.4,23.2,0.00,ESE,116,0.0,0.0,12,0.00,,---,0.00,VWS V14.01,2013-08-07 17:59:00,
2013-08-07 11:04:00,80.6,23.4,0.00,SSE,158,0.0,0.0,12,0.00,,---,0.00,VWS V14.01,2013-08-07 18:04:00,
2013-08-07 11:09:00,80.6,23.4,0.00,South,183,0.0,0.0,12,0.00,,---,0.00,VWS V14.01,2013-08-07 18:09:00,
2013-08-07 11:14:00,81.0,23.6,0.00,SE,137,0.0,0.0,12,0.00,,---,0.00,VWS V14.01,2013-08-07 18:14:00,
2013-08-07 11:19:00,81.3,23.9,0.00,South,182,0.0,0.0,12,0.00,,---,0.00,VWS V14.01,2013-08-07 18:19:00,
2013-08-07 11:24:00,81.5,24.0,0.00,SSE,155,0.0,0.0,12,0.00,,---,0.00,VWS V14.01,2013-08-07 18:24:00,
2013-08-07 11:29:00,81.9,24.3,0.00,South,169,0.0,0.0,12,0.00,,---,0.00,VWS V14.01,2013-08-07 18:29:00,
2013-08-07 11:34:00,82.2,24.6,0.00,SE,139,0.0,0.0,12,0.00,,---,0.00,VWS V14.01,2013-08-07 18:34:00,
2013-08-07 11:39:00,82.6,22.8,0.00,South,190,0.0,0.0,11,0.00,,---,0.00,VWS V14.01,2013-08-07 18:39:00,
2013-08-07 11:44:00,82.9,23.1,0.00,South,174,0.0,0.0,11,0.00,,---,0.00,VWS V14.01,2013-08-07 18:44:00,
2013-08-07 11:49:00,83.3,23.4,0.00,SSE,166,0.0,0.0,11,0.00,,---,0.00,VWS V14.01,2013-08-07 18:49:00,
2013-08-07 11:54:00,83.8,23.8,0.00,SE,143,0.0,0.0,11,0.00,,---,0.00,VWS V14.01,2013-08-07 18:54:00,
2013-08-07 11:59:00,84.4,24.2,0.00,South,170,0.0,0.0,11,0.00,,---,0.00,VWS V14.01,2013-08-07 18:59:00,
2013-08-07 12:04:00,84.7,24.5,0.00,SSW,196,0.0,0.0,11,0.00,,---,0.00,VWS V14.01,2013-08-07 19:04:00,
2013-08-07 12:09:00,84.9,24.6,0.00,South,169,0.0,0.0,11,0.00,,---,0.00,VWS V14.01,2013-08-07 19:09:00,
2013-08-07 12:14:00,84.7,24.5,0.00,SSE,158,0.0,0.0,11,0.00,,---,0.00,VWS V14.01,2013-08-07 19:14:00,
2013-08-07 12:19:00,85.3,24.9,0.00,SE,145,0.0,0.0,11,0.00,,---,0.00,VWS V14.01,2013-08-07 19:19:00,
2013-08-07 12:24:00,86.0,25.4,0.00,SSE,167,3.1,4.9,11,0.00,,---,0.00,VWS V14.01,2013-08-07 19:24:00,
2013-08-07 12:29:00,86.2,25.6,0.00,WSW,237,3.6,5.8,11,0.00,,---,0.00,VWS V14.01,2013-08-07 19:29:00,
2013-08-07 12:34:00,86.2,25.6,0.00,SSE,162,2.7,2.7,11,0.00,,---,0.00,VWS V14.01,2013-08-07 19:34:00,
2013-08-07 12:39:00,86.4,25.7,0.00,SW,233,4.9,5.4,11,0.00,,---,0.00,VWS V14.01,2013-08-07 19:39:00,
2013-08-07 12:44:00,86.5,25.9,0.00,South,177,0.0,0.0,11,0.00,,---,0.00,VWS V14.01,2013-08-07 19:44:00,
2013-08-07 12:49:00,87.1,26.3,0.00,SE,141,0.0,0.0,11,0.00,,---,0.00,VWS V14.01,2013-08-07 19:49:00,
2013-08-07 12:54:00,86.9,26.1,0.00,SSW,196,0.0,0.0,11,0.00,,---,0.00,VWS V14.01,2013-08-07 19:54:00,
2013-08-07 12:59:00,86.7,26.0,0.00,South,182,0.0,0.0,11,0.00,,---,0.00,VWS V14.01,2013-08-07 19:59:00,
2013-08-07 13:04:00,87.1,26.3,0.00,WSW,239,0.0,0.0,11,0.00,,---,0.00,VWS V14.01,2013-08-07 20:04:00,
2013-08-07 13:09:00,87.1,26.3,0.00,SE,134,0.0,0.0,11,0.00,,---,0.00,VWS V14.01,2013-08-07 20:09:00,
2013-08-07 13:14:00,87.1,26.3,0.00,SSE,161,0.0,0.0,11,0.00,,---,0.00,VWS V14.01,2013-08-07 20:14:00,
2013-08-07 13:19:00,87.3,26.4,0.00,South,179,0.0,0.0,11,0.00,,---,0.00,VWS V14.01,2013-08-07 20:19:00,
2013-08-07 13:24:00,87.4,26.5,0.00,SSW,192,0.0,0.0,11,0.00,,---,0.00,VWS V14.01,2013-08-07 20:24:00,
2013-08-07 13:29:00,87.8,24.5,0.00,South,181,0.0,0.0,10,0.00,,---,0.00,VWS V14.01,2013-08-07 20:29:00,
2013-08-07 13:34:00,88.2,24.8,0.00,SSW,207,0.0,0.0,10,0.00,,---,0.00,VWS V14.01,2013-08-07 20:34:00,
2013-08-07 13:39:00,88.0,24.7,0.00,South,191,0.0,0.0,10,0.00,,---,0.00,VWS V14.01,2013-08-07 20:39:00,
2013-08-07 13:44:00,88.2,24.8,0.00,SSW,198,0.0,0.0,10,0.00,,---,0.00,VWS V14.01,2013-08-07 20:44:00,
2013-08-07 13:49:00,88.5,25.1,0.00,South,170,0.0,0.0,10,0.00,,---,0.00,VWS V14.01,2013-08-07 20:49:00,
2013-08-07 13:54:00,88.3,24.9,0.00,SSW,196,0.0,0.0,10,0.00,,---,0.00,VWS V14.01,2013-08-07 20:54:00,
2013-08-07 13:59:00,88.9,25.3,0.00,SSE,161,0.0,0.0,10,0.00,,---,0.00,VWS V14.01,2013-08-07 20:59:00,
2013-08-07 14:04:00,88.5,25.1,0.00,South,175,0.0,0.0,10,0.00,,---,0.00,VWS V14.01,2013-08-07 21:04:00,
2013-08-07 14:09:00,88.0,24.7,0.00,SW,219,0.0,0.0,10,0.00,,---,0.00,VWS V14.01,2013-08-07 21:09:00,
2013-08-07 14:14:00,88.2,24.8,0.00,WSW,243,0.0,0.0,10,0.00,,---,0.00,VWS V14.01,2013-08-07 21:14:00,
2013-08-07 14:19:00,89.2,25.6,0.00,NNW,335,0.0,0.0,10,0.00,,---,0.00,VWS V14.01,2013-08-07 21:19:00,
2013-08-07 14:24:00,90.1,26.3,0.00,West,261,0.0,0.0,10,0.00,,---,0.00,VWS V14.01,2013-08-07 21:24:00,
2013-08-07 14:29:00,91.0,27.0,0.00,SSE,150,0.0,0.0,10,0.00,,---,0.00,VWS V14.01,2013-08-07 21:29:00,
2013-08-07 14:34:00,90.7,26.7,0.00,WSW,237,0.0,0.0,10,0.00,,---,0.00,VWS V14.01,2013-08-07 21:34:00,
2013-08-07 14:39:00,90.0,26.2,0.00,SW,230,0.0,0.0,10,0.00,,---,0.00,VWS V14.01,2013-08-07 21:39:00,
2013-08-07 14:44:00,90.0,26.2,0.00,SW,229,0.0,0.0,10,0.00,,---,0.00,VWS V14.01,2013-08-07 21:44:00,
2013-08-07 14:49:00,90.1,26.3,0.00,SSW,198,0.0,0.0,10,0.00,,---,0.00,VWS V14.01,2013-08-07 21:49:00,
2013-08-07 14:54:00,90.9,26.8,0.00,SSE,150,0.0,0.0,10,0.00,,---,0.00,VWS V14.01,2013-08-07 21:54:00,
2013-08-07 14:59:00,91.0,27.0,0.00,SW,234,0.0,0.0,10,0.00,,---,0.00,VWS V14.01,2013-08-07 21:59:00,
2013-08-07 15:04:00,90.3,26.4,0.00,SSE,157,0.0,0.0,10,0.00,,---,0.00,VWS V14.01,2013-08-07 22:04:00,
2013-08-07 15:09:00,90.0,26.2,0.00,WSW,243,0.0,0.0,10,0.00,,---,0.00,VWS V14.01,2013-08-07 22:09:00,
2013-08-07 15:14:00,90.0,26.2,0.00,West,271,0.0,0.0,10,0.00,,---,0.00,VWS V14.01,2013-08-07 22:14:00,
2013-08-07 15:19:00,90.3,26.4,0.00,SW,234,0.0,0.0,10,0.00,,---,0.00,VWS V14.01,2013-08-07 22:19:00,
2013-08-07 15:24:00,90.3,26.4,0.00,WNW,300,0.0,0.0,10,0.00,,---,0.00,VWS V14.01,2013-08-07 22:24:00,
2013-08-07 15:29:00,90.5,26.6,0.00,NW,326,0.0,0.0,10,0.00,,---,0.00,VWS V14.01,2013-08-07 22:29:00,
2013-08-07 15:34:00,90.5,26.6,0.00,West,262,0.0,0.0,10,0.00,,---,0.00,VWS V14.01,2013-08-07 22:34:00,
2013-08-07 15:39:00,90.7,26.7,0.00,West,272,0.0,0.0,10,0.00,,---,0.00,VWS V14.01,2013-08-07 22:39:00,
2013-08-07 15:44:00,90.7,26.7,0.00,SSW,194,0.0,0.0,10,0.00,,---,0.00,VWS V14.01,2013-08-07 22:44:00,
2013-08-07 15:49:00,90.1,26.3,0.00,SE,134,0.0,3.6,10,0.00,,---,0.00,VWS V14.01,2013-08-07 22:49:00,
2013-08-07 15:54:00,90.1,26.3,0.00,SSE,165,0.0,3.1,10,0.00,,---,0.00,VWS V14.01,2013-08-07 22:54:00,
2013-08-07 15:59:00,90.5,26.6,0.00,SSW,212,2.7,3.6,10,0.00,,---,0.00,VWS V14.01,2013-08-07 22:59:00,
2013-08-07 16:04:00,90.5,26.6,0.00,SW,235,6.3,7.6,10,0.00,,---,0.00,VWS V14.01,2013-08-07 23:04:00,
2013-08-07 16:09:00,90.3,26.4,0.00,South,174,3.1,3.6,10,0.00,,---,0.00,VWS V14.01,2013-08-07 23:09:00,
2013-08-07 16:14:00,90.3,26.4,0.00,SSE,163,2.7,3.6,10,0.00,,---,0.00,VWS V14.01,2013-08-07 23:14:00,
2013-08-07 16:19:00,90.7,26.7,0.00,SSW,207,7.6,7.6,10,0.00,,---,0.00,VWS V14.01,2013-08-07 23:19:00,
2013-08-07 16:24:00,90.5,26.6,0.00,SW,218,2.2,3.6,10,0.00,,---,0.00,VWS V14.01,2013-08-07 23:24:00,
2013-08-07 16:29:00,90.3,26.4,0.00,WSW,246,0.0,3.6,10,0.00,,---,0.00,VWS V14.01,2013-08-07 23:29:00,
2013-08-07 16:34:00,90.9,26.8,0.00,SSW,193,0.0,0.0,10,0.00,,---,0.00,VWS V14.01,2013-08-07 23:34:00,
2013-08-07 16:39:00,91.2,27.1,0.00,SSW,205,0.0,0.0,10,0.00,,---,0.00,VWS V14.01,2013-08-07 23:39:00,
2013-08-07 16:44:00,91.0,27.0,0.00,SSW,195,4.0,4.0,10,0.00,,---,0.00,VWS V14.01,2013-08-07 23:44:00,
2013-08-07 16:49:00,90.9,26.8,0.00,South,180,2.2,3.6,10,0.00,,---,0.00,VWS V14.01,2013-08-07 23:49:00,
2013-08-07 16:54:00,90.7,26.7,0.00,SW,218,3.1,4.0,10,0.00,,---,0.00,VWS V14.01,2013-08-07 23:54:00,
2013-08-07 16:59:00,90.3,26.4,0.00,SSW,203,0.0,0.0,10,0.00,,---,0.00,VWS V14.01,2013-08-07 23:59:00,
2013-08-07 17:04:00,90.7,26.7,0.00,SSW,194,6.3,7.6,10,0.00,,---,0.00,VWS V14.01,2013-08-08 00:04:00,
2013-08-07 17:09:00,90.5,26.6,0.00,WSW,248,0.0,0.0,10,0.00,,---,0.00,VWS V14.01,2013-08-08 00:09:00,
2013-08-07 17:14:00,90.7,26.7,0.00,NNW,338,0.0,0.0,10,0.00,,---,0.00,VWS V14.01,2013-08-08 00:14:00,
2013-08-07 17:19:00,91.2,27.1,0.00,SSE,157,2.7,3.6,10,0.00,,---,0.00,VWS V14.01,2013-08-08 00:19:00,
2013-08-07 17:24:00,91.0,27.0,0.00,SE,144,0.0,0.0,10,0.00,,---,0.00,VWS V14.01,2013-08-08 00:24:00,
2013-08-07 17:29:00,91.2,27.1,0.00,NE,52,0.0,0.0,10,0.00,,---,0.00,VWS V14.01,2013-08-08 00:29:00,
2013-08-07 17:34:00,91.2,27.1,0.00,SSE,159,0.0,0.0,10,0.00,,---,0.00,VWS V14.01,2013-08-08 00:34:00,
2013-08-07 17:39:00,91.0,27.0,0.00,SSW,196,4.5,4.5,10,0.00,,---,0.00,VWS V14.01,2013-08-08 00:39:00,
2013-08-07 17:44:00,90.3,26.4,0.00,WSW,252,2.7,3.6,10,0.00,,---,0.00,VWS V14.01,2013-08-08 00:44:00,
2013-08-07 17:49:00,90.1,26.3,0.00,SSW,200,0.0,0.0,10,0.00,,---,0.00,VWS V14.01,2013-08-08 00:49:00,
2013-08-07 17:54:00,90.0,26.2,0.00,SE,130,0.0,0.0,10,0.00,,---,0.00,VWS V14.01,2013-08-08 00:54:00,
2013-08-07 17:59:00,89.6,25.9,0.00,South,172,0.0,0.0,10,0.00,,---,0.00,VWS V14.01,2013-08-08 00:59:00,
2013-08-07 18:04:00,89.2,25.6,0.00,SSW,197,4.0,4.5,10,0.00,,---,0.00,VWS V14.01,2013-08-08 01:04:00,
2013-08-07 18:08:00,88.5,25.1,0.00,South,180,4.9,5.8,10,0.00,,---,0.00,VWS V14.01,2013-08-08 01:08:00,
2013-08-07 18:13:00,88.2,24.8,0.00,South,178,3.6,4.0,10,0.00,,---,0.00,VWS V14.01,2013-08-08 01:13:00,
2013-08-07 18:18:00,88.0,24.7,0.00,SE,146,3.6,3.6,10,0.00,,---,0.00,VWS V14.01,2013-08-08 01:18:00,
2013-08-07 18:23:00,88.0,24.7,0.00,SSE,157,0.0,2.2,10,0.00,,---,0.00,VWS V14.01,2013-08-08 01:23:00,
2013-08-07 18:28:00,88.0,24.7,0.00,South,179,2.7,2.7,10,0.00,,---,0.00,VWS V14.01,2013-08-08 01:28:00,
2013-08-07 18:33:00,88.0,24.7,0.00,South,176,2.7,4.0,10,0.00,,---,0.00,VWS V14.01,2013-08-08 01:33:00,
2013-08-07 18:38:00,87.8,24.5,0.00,SE,133,0.0,0.0,10,0.00,,---,0.00,VWS V14.01,2013-08-08 01:38:00,
2013-08-07 18:43:00,87.4,26.5,0.00,South,176,0.0,0.0,11,0.00,,---,0.00,VWS V14.01,2013-08-08 01:43:00,
2013-08-07 18:48:00,87.1,26.3,0.00,SSE,157,0.0,0.0,11,0.00,,---,0.00,VWS V14.01,2013-08-08 01:48:00,
2013-08-07 18:53:00,86.9,26.1,0.00,South,175,5.8,5.8,11,0.00,,---,0.00,VWS V14.01,2013-08-08 01:53:00,
2013-08-07 18:58:00,86.7,26.0,0.00,South,184,0.0,0.0,11,0.00,,---,0.00,VWS V14.01,2013-08-08 01:58:00,
2013-08-07 19:03:00,86.4,25.7,0.00,SSE,162,0.0,0.0,11,0.00,,---,0.00,VWS V14.01,2013-08-08 02:03:00,
2013-08-07 19:08:00,86.2,25.6,0.00,SSE,151,0.0,0.0,11,0.00,,---,0.00,VWS V14.01,2013-08-08 02:08:00,
2013-08-07 19:13:00,85.8,25.3,0.00,SSE,154,0.0,0.0,11,0.00,,---,0.00,VWS V14.01,2013-08-08 02:13:00,
2013-08-07 19:18:00,85.6,25.2,0.00,SE,132,0.0,0.0,11,0.00,,---,0.00,VWS V14.01,2013-08-08 02:18:00,
2013-08-07 19:23:00,85.3,24.9,0.00,SSE,147,0.0,0.0,11,0.00,,---,0.00,VWS V14.01,2013-08-08 02:23:00,
2013-08-07 19:28:00,84.9,24.6,0.00,SSE,147,0.0,0.0,11,0.00,,---,0.00,VWS V14.01,2013-08-08 02:28:00,
2013-08-07 19:33:00,84.6,24.3,0.00,SSE,147,0.0,0.0,11,0.00,,---,0.00,VWS V14.01,2013-08-08 02:33:00,
2013-08-07 19:38:00,84.2,24.0,0.00,SSE,156,0.0,0.0,11,0.00,,---,0.00,VWS V14.01,2013-08-08 02:38:00,
2013-08-07 19:43:00,83.7,23.6,0.00,SSE,156,0.0,0.0,11,0.00,,---,0.00,VWS V14.01,2013-08-08 02:43:00,
2013-08-07 19:48:00,83.1,23.2,0.00,SSE,156,0.0,0.0,11,0.00,,---,0.00,VWS V14.01,2013-08-08 02:48:00,
2013-08-07 19:53:00,82.6,22.8,0.00,SSE,156,0.0,0.0,11,0.00,,---,0.00,VWS V14.01,2013-08-08 02:53:00,
2013-08-07 19:58:00,82.0,24.5,0.00,SSE,156,0.0,0.0,12,0.00,,---,0.00,VWS V14.01,2013-08-08 02:58:00,
2013-08-07 20:03:00,81.5,24.0,0.00,South,173,0.0,0.0,12,0.00,,---,0.00,VWS V14.01,2013-08-08 03:03:00,
2013-08-07 20:08:00,81.0,23.6,0.00,South,173,0.0,0.0,12,0.00,,---,0.00,VWS V14.01,2013-08-08 03:08:00,
2013-08-07 20:13:00,80.4,23.2,0.00,South,173,0.0,0.0,12,0.00,,---,0.00,VWS V14.01,2013-08-08 03:13:00,
2013-08-07 20:18:00,80.2,23.1,0.00,South,173,0.0,0.0,12,0.00,,---,0.00,VWS V14.01,2013-08-08 03:18:00,
2013-08-07 20:23:00,80.1,22.9,0.00,South,173,0.0,0.0,12,0.00,,---,0.00,VWS V14.01,2013-08-08 03:23:00,
2013-08-07 20:28:00,79.7,22.6,0.00,SSE,151,0.0,0.0,12,0.00,,---,0.00,VWS V14.01,2013-08-08 03:28:00,
2013-08-07 20:33:00,79.5,22.5,0.00,SSE,151,0.0,0.0,12,0.00,,---,0.00,VWS V14.01,2013-08-08 03:33:00,
2013-08-07 20:38:00,79.2,22.2,0.00,SSE,151,0.0,0.0,12,0.00,,---,0.00,VWS V14.01,2013-08-08 03:38:00,
2013-08-07 20:43:00,78.6,23.7,0.00,SSE,151,0.0,0.0,13,0.00,,---,0.00,VWS V14.01,2013-08-08 03:43:00,
2013-08-07 20:48:00,77.9,23.1,0.00,SSE,151,0.0,0.0,13,0.00,,---,0.00,VWS V14.01,2013-08-08 03:48:00,
2013-08-07 20:54:00,77.4,22.7,0.00,SSE,151,0.0,0.0,13,0.00,,---,0.00,VWS V14.01,2013-08-08 03:54:00,
2013-08-07 20:59:00,77.2,22.6,0.00,SSE,151,0.0,0.0,13,0.00,,---,0.00,VWS V14.01,2013-08-08 03:59:00,
2013-08-07 21:01:00,77.0,22.4,0.00,SSE,151,0.0,0.0,13,0.00,,---,0.00,VWS V14.01,2013-08-08 04:01:00,
2013-08-07 21:06:00,76.8,22.3,0.00,SSE,151,0.0,0.0,13,0.00,,---,0.00,VWS V14.01,2013-08-08 04:06:00,
2013-08-07 21:11:00,76.6,22.1,0.00,SSE,151,0.0,0.0,13,0.00,,---,0.00,VWS V14.01,2013-08-08 04:11:00,
2013-08-07 21:16:00,76.5,22.0,0.00,SSE,151,0.0,0.0,13,0.00,,---,0.00,VWS V14.01,2013-08-08 04:16:00,
2013-08-07 21:21:00,76.3,21.9,0.00,ESE,109,0.0,0.0,13,0.00,,---,0.00,VWS V14.01,2013-08-08 04:21:00,
2013-08-07 21:26:00,76.5,22.0,0.00,ESE,108,0.0,0.0,13,0.00,,---,0.00,VWS V14.01,2013-08-08 04:26:00,
2013-08-07 21:31:00,76.3,21.9,0.00,ESE,108,0.0,0.0,13,0.00,,---,0.00,VWS V14.01,2013-08-08 04:31:00,
2013-08-07 21:36:00,75.9,21.6,0.00,ESE,108,0.0,0.0,13,0.00,,---,0.00,VWS V14.01,2013-08-08 04:36:00,
2013-08-07 21:41:00,75.9,21.6,0.00,ESE,108,0.0,0.0,13,0.00,,---,0.00,VWS V14.01,2013-08-08 04:41:00,
2013-08-07 21:46:00,75.6,21.3,0.00,North,353,0.0,0.0,13,0.00,,---,0.00,VWS V14.01,2013-08-08 04:46:00,
2013-08-07 21:51:00,75.2,21.0,0.00,North,353,0.0,0.0,13,0.00,,---,0.00,VWS V14.01,2013-08-08 04:51:00,
2013-08-07 21:56:00,74.7,20.6,0.00,North,353,0.0,0.0,13,0.00,,---,0.00,VWS V14.01,2013-08-08 04:56:00,
2013-08-07 22:01:00,75.0,20.9,0.00,North,353,0.0,0.0,13,0.00,,---,0.00,VWS V14.01,2013-08-08 05:01:00,
2013-08-07 22:06:00,75.2,21.0,0.00,North,353,0.0,0.0,13,0.00,,---,0.00,VWS V14.01,2013-08-08 05:06:00,
2013-08-07 22:11:00,75.2,21.0,0.00,North,353,0.0,0.0,13,0.00,,---,0.00,VWS V14.01,2013-08-08 05:11:00,
2013-08-07 22:16:00,75.4,21.2,0.00,North,353,0.0,0.0,13,0.00,,---,0.00,VWS V14.01,2013-08-08 05:16:00,
2013-08-07 22:21:00,75.4,21.2,0.00,North,353,0.0,0.0,13,0.00,,---,0.00,VWS V14.01,2013-08-08 05:21:00,
2013-08-07 22:26:00,75.4,21.2,0.00,NE,42,0.0,0.0,13,0.00,,---,0.00,VWS V14.01,2013-08-08 05:26:00,
2013-08-07 22:31:00,75.2,21.0,0.00,NE,42,0.0,0.0,13,0.00,,---,0.00,VWS V14.01,2013-08-08 05:31:00,
2013-08-07 22:36:00,74.8,20.7,0.00,NE,42,0.0,0.0,13,0.00,,---,0.00,VWS V14.01,2013-08-08 05:36:00,
2013-08-07 22:41:00,74.5,20.5,0.00,NE,42,0.0,0.0,13,0.00,,---,0.00,VWS V14.01,2013-08-08 05:41:00,
2013-08-07 22:46:00,74.3,20.3,0.00,NE,43,0.0,0.0,13,0.00,,---,0.00,VWS V14.01,2013-08-08 05:46:00,
2013-08-07 22:51:00,74.5,20.5,0.00,NE,43,0.0,0.0,13,0.00,,---,0.00,VWS V14.01,2013-08-08 05:51:00,
2013-08-07 22:56:00,74.5,20.5,0.00,NE,43,0.0,0.0,13,0.00,,---,0.00,VWS V14.01,2013-08-08 05:56:00,
2013-08-07 23:01:00,74.1,20.2,0.00,NE,43,0.0,0.0,13,0.00,,---,0.00,VWS V14.01,2013-08-08 06:01:00,
2013-08-07 23:06:00,73.9,20.0,0.00,NE,43,0.0,0.0,13,0.00,,---,0.00,VWS V14.01,2013-08-08 06:06:00,
2013-08-07 23:11:00,73.8,19.9,0.00,NE,43,0.0,0.0,13,0.00,,---,0.00,VWS V14.01,2013-08-08 06:11:00,
2013-08-07 23:16:00,73.6,19.8,0.00,NE,43,0.0,0.0,13,0.00,,---,0.00,VWS V14.01,2013-08-08 06:16:00,
2013-08-07 23:21:00,73.0,21.1,0.00,NE,43,0.0,0.0,14,0.00,,---,0.00,VWS V14.01,2013-08-08 06:21:00,
2013-08-07 23:26:00,73.0,21.1,0.00,East,83,0.0,0.0,14,0.00,,---,0.00,VWS V14.01,2013-08-08 06:26:00,
2013-08-07 23:31:00,73.4,19.6,0.00,East,83,0.0,0.0,13,0.00,,---,0.00,VWS V14.01,2013-08-08 06:31:00,
2013-08-07 23:36:00,73.4,19.6,0.00,East,83,0.0,0.0,13,0.00,,---,0.00,VWS V14.01,2013-08-08 06:36:00,
2013-08-07 23:41:00,73.4,19.6,0.00,East,83,0.0,0.0,13,0.00,,---,0.00,VWS V14.01,2013-08-08 06:41:00,
2013-08-07 23:46:00,73.2,21.2,0.00,East,83,0.0,0.0,14,0.00,,---,0.00,VWS V14.01,2013-08-08 06:46:00,
2013-08-07 23:51:00,73.4,19.6,0.00,East,83,0.0,0.0,13,0.00,,---,0.00,VWS V14.01,2013-08-08 06:51:00,
2013-08-07 23:56:00,73.6,19.8,0.00,East,83,0.0,0.0,13,0.00,,---,0.00,VWS V14.01,2013-08-08 06:56:00,